sensor_id;sensor_type;location;lat;lon;timestamp;P1;durP1;ratioP1;P2;durP2;ratioP2
34497;SDS011;20744;50.938;7.286;2023-10-19T00:00:31;14.68;;;10.23;;
34497;SDS011;20744;50.938;7.286;2023-10-19T00:03:01;14.18;;;10.98;;
34497;SDS011;20744;50.938;7.286;2023-10-19T00:05:29;17.20;;;11.50;;
34497;SDS011;20744;50.938;7.286;2023-10-19T00:07:57;14.90;;;10.77;;
34497;SDS011;20744;50.938;7.286;2023-10-19T00:10:25;13.35;;;10.68;;
34497;SDS011;20744;50.938;7.286;2023-10-19T00:12:55;15.98;;;11.25;;
34497;SDS011;20744;50.938;7.286;2023-10-19T00:15:25;16.05;;;11.43;;
34497;SDS011;20744;50.938;7.286;2023-10-19T00:17:55;18.02;;;12.30;;
34497;SDS011;20744;50.938;7.286;2023-10-19T00:20:24;16.63;;;11.98;;
34497;SDS011;20744;50.938;7.286;2023-10-19T00:23:03;17.50;;;12.18;;
34497;SDS011;20744;50.938;7.286;2023-10-19T00:25:32;17.17;;;12.35;;
34497;SDS011;20744;50.938;7.286;2023-10-19T00:27:59;18.23;;;13.02;;
34497;SDS011;20744;50.938;7.286;2023-10-19T00:30:29;19.20;;;13.18;;
34497;SDS011;20744;50.938;7.286;2023-10-19T00:33:00;16.40;;;12.02;;
34497;SDS011;20744;50.938;7.286;2023-10-19T00:35:30;19.90;;;13.18;;
34497;SDS011;20744;50.938;7.286;2023-10-19T00:38:00;18.98;;;13.95;;
34497;SDS011;20744;50.938;7.286;2023-10-19T00:40:43;16.00;;;12.15;;
34497;SDS011;20744;50.938;7.286;2023-10-19T00:43:12;19.52;;;13.60;;
34497;SDS011;20744;50.938;7.286;2023-10-19T00:45:43;20.75;;;13.30;;
34497;SDS011;20744;50.938;7.286;2023-10-19T00:48:12;19.30;;;13.65;;
34497;SDS011;20744;50.938;7.286;2023-10-19T00:50:40;20.65;;;13.52;;
34497;SDS011;20744;50.938;7.286;2023-10-19T00:53:08;23.92;;;14.07;;
34497;SDS011;20744;50.938;7.286;2023-10-19T00:55:37;20.75;;;13.95;;
34497;SDS011;20744;50.938;7.286;2023-10-19T00:58:08;19.98;;;13.30;;
34497;SDS011;20744;50.938;7.286;2023-10-19T01:00:38;18.55;;;12.02;;
34497;SDS011;20744;50.938;7.286;2023-10-19T01:03:10;17.23;;;13.05;;
34497;SDS011;20744;50.938;7.286;2023-10-19T01:05:42;20.38;;;13.82;;
34497;SDS011;20744;50.938;7.286;2023-10-19T01:08:13;16.98;;;13.00;;
34497;SDS011;20744;50.938;7.286;2023-10-19T01:13:18;18.70;;;13.30;;
34497;SDS011;20744;50.938;7.286;2023-10-19T01:15:52;16.75;;;12.82;;
34497;SDS011;20744;50.938;7.286;2023-10-19T01:18:19;24.42;;;14.68;;
34497;SDS011;20744;50.938;7.286;2023-10-19T01:20:47;20.17;;;14.30;;
34497;SDS011;20744;50.938;7.286;2023-10-19T01:23:18;20.75;;;13.30;;
34497;SDS011;20744;50.938;7.286;2023-10-19T01:25:53;20.38;;;14.18;;
34497;SDS011;20744;50.938;7.286;2023-10-19T01:28:31;19.08;;;13.90;;
34497;SDS011;20744;50.938;7.286;2023-10-19T01:31:09;19.20;;;13.80;;
34497;SDS011;20744;50.938;7.286;2023-10-19T01:33:40;17.05;;;13.40;;
34497;SDS011;20744;50.938;7.286;2023-10-19T01:36:08;17.35;;;14.15;;
34497;SDS011;20744;50.938;7.286;2023-10-19T01:38:51;22.13;;;14.45;;
34497;SDS011;20744;50.938;7.286;2023-10-19T01:41:19;18.63;;;13.52;;
34497;SDS011;20744;50.938;7.286;2023-10-19T01:43:47;21.27;;;14.38;;
34497;SDS011;20744;50.938;7.286;2023-10-19T01:46:18;20.55;;;13.88;;
34497;SDS011;20744;50.938;7.286;2023-10-19T01:48:50;22.38;;;14.25;;
34497;SDS011;20744;50.938;7.286;2023-10-19T01:51:19;24.92;;;16.00;;
34497;SDS011;20744;50.938;7.286;2023-10-19T01:53:47;22.17;;;14.98;;
34497;SDS011;20744;50.938;7.286;2023-10-19T01:56:16;19.90;;;14.02;;
34497;SDS011;20744;50.938;7.286;2023-10-19T01:58:43;31.10;;;15.52;;
34497;SDS011;20744;50.938;7.286;2023-10-19T02:01:12;24.52;;;15.52;;
34497;SDS011;20744;50.938;7.286;2023-10-19T02:03:44;23.70;;;15.25;;
34497;SDS011;20744;50.938;7.286;2023-10-19T02:06:13;20.15;;;14.35;;
34497;SDS011;20744;50.938;7.286;2023-10-19T02:08:44;19.95;;;14.35;;
34497;SDS011;20744;50.938;7.286;2023-10-19T02:11:13;25.23;;;14.73;;
34497;SDS011;20744;50.938;7.286;2023-10-19T02:13:44;21.20;;;14.70;;
34497;SDS011;20744;50.938;7.286;2023-10-19T02:16:12;20.38;;;13.98;;
34497;SDS011;20744;50.938;7.286;2023-10-19T02:18:41;18.05;;;13.05;;
34497;SDS011;20744;50.938;7.286;2023-10-19T02:21:08;19.23;;;13.57;;
34497;SDS011;20744;50.938;7.286;2023-10-19T02:23:37;20.90;;;13.75;;
34497;SDS011;20744;50.938;7.286;2023-10-19T02:26:04;19.02;;;13.20;;
34497;SDS011;20744;50.938;7.286;2023-10-19T02:28:31;19.58;;;13.27;;
34497;SDS011;20744;50.938;7.286;2023-10-19T02:31:03;18.02;;;12.80;;
34497;SDS011;20744;50.938;7.286;2023-10-19T02:33:37;21.35;;;13.70;;
34497;SDS011;20744;50.938;7.286;2023-10-19T02:36:04;20.85;;;13.05;;
34497;SDS011;20744;50.938;7.286;2023-10-19T02:38:38;21.90;;;13.77;;
34497;SDS011;20744;50.938;7.286;2023-10-19T02:41:05;22.38;;;13.30;;
34497;SDS011;20744;50.938;7.286;2023-10-19T02:43:31;20.50;;;12.82;;
34497;SDS011;20744;50.938;7.286;2023-10-19T02:46:00;18.00;;;13.10;;
34497;SDS011;20744;50.938;7.286;2023-10-19T02:48:29;19.27;;;12.57;;
34497;SDS011;20744;50.938;7.286;2023-10-19T02:50:57;20.40;;;13.65;;
34497;SDS011;20744;50.938;7.286;2023-10-19T02:53:31;19.10;;;13.38;;
34497;SDS011;20744;50.938;7.286;2023-10-19T02:55:59;19.60;;;13.15;;
34497;SDS011;20744;50.938;7.286;2023-10-19T02:58:31;21.05;;;12.70;;
34497;SDS011;20744;50.938;7.286;2023-10-19T03:00:58;22.55;;;14.27;;
34497;SDS011;20744;50.938;7.286;2023-10-19T03:03:25;21.83;;;13.48;;
34497;SDS011;20744;50.938;7.286;2023-10-19T03:05:57;20.95;;;13.50;;
34497;SDS011;20744;50.938;7.286;2023-10-19T03:08:24;32.30;;;14.25;;
34497;SDS011;20744;50.938;7.286;2023-10-19T03:10:51;20.60;;;13.40;;
34497;SDS011;20744;50.938;7.286;2023-10-19T03:13:29;19.65;;;13.95;;
34497;SDS011;20744;50.938;7.286;2023-10-19T03:15:57;20.58;;;12.65;;
34497;SDS011;20744;50.938;7.286;2023-10-19T03:18:25;18.00;;;12.65;;
34497;SDS011;20744;50.938;7.286;2023-10-19T03:20:53;20.58;;;13.70;;
34497;SDS011;20744;50.938;7.286;2023-10-19T03:23:21;24.45;;;14.27;;
34497;SDS011;20744;50.938;7.286;2023-10-19T03:25:53;24.30;;;14.18;;
34497;SDS011;20744;50.938;7.286;2023-10-19T03:28:43;22.63;;;14.15;;
34497;SDS011;20744;50.938;7.286;2023-10-19T03:31:11;26.08;;;14.15;;
34497;SDS011;20744;50.938;7.286;2023-10-19T03:33:43;23.30;;;14.10;;
34497;SDS011;20744;50.938;7.286;2023-10-19T03:36:13;20.85;;;14.20;;
34497;SDS011;20744;50.938;7.286;2023-10-19T03:38:41;21.35;;;13.48;;
34497;SDS011;20744;50.938;7.286;2023-10-19T03:41:11;18.63;;;13.05;;
34497;SDS011;20744;50.938;7.286;2023-10-19T03:43:39;20.85;;;13.73;;
34497;SDS011;20744;50.938;7.286;2023-10-19T03:46:06;21.38;;;14.23;;
34497;SDS011;20744;50.938;7.286;2023-10-19T03:48:47;21.00;;;14.30;;
34497;SDS011;20744;50.938;7.286;2023-10-19T03:51:15;25.33;;;13.95;;
34497;SDS011;20744;50.938;7.286;2023-10-19T03:53:44;20.55;;;13.98;;
34497;SDS011;20744;50.938;7.286;2023-10-19T03:56:19;22.73;;;13.48;;
34497;SDS011;20744;50.938;7.286;2023-10-19T03:58:46;23.60;;;13.18;;
34497;SDS011;20744;50.938;7.286;2023-10-19T04:01:16;22.38;;;14.23;;
34497;SDS011;20744;50.938;7.286;2023-10-19T04:03:45;23.08;;;12.82;;
34497;SDS011;20744;50.938;7.286;2023-10-19T04:06:14;26.65;;;13.77;;
34497;SDS011;20744;50.938;7.286;2023-10-19T04:08:41;22.38;;;13.63;;
34497;SDS011;20744;50.938;7.286;2023-10-19T04:11:14;26.55;;;14.13;;
34497;SDS011;20744;50.938;7.286;2023-10-19T04:13:48;23.02;;;13.75;;
34497;SDS011;20744;50.938;7.286;2023-10-19T04:16:18;20.95;;;13.70;;
34497;SDS011;20744;50.938;7.286;2023-10-19T04:18:46;22.73;;;13.35;;
34497;SDS011;20744;50.938;7.286;2023-10-19T04:21:14;21.38;;;14.15;;
34497;SDS011;20744;50.938;7.286;2023-10-19T04:23:42;28.58;;;15.73;;
34497;SDS011;20744;50.938;7.286;2023-10-19T04:26:11;23.23;;;14.32;;
34497;SDS011;20744;50.938;7.286;2023-10-19T04:28:41;25.33;;;14.35;;
34497;SDS011;20744;50.938;7.286;2023-10-19T04:31:14;22.63;;;13.23;;
34497;SDS011;20744;50.938;7.286;2023-10-19T04:33:42;33.85;;;16.05;;
34497;SDS011;20744;50.938;7.286;2023-10-19T04:36:13;24.75;;;14.35;;
34497;SDS011;20744;50.938;7.286;2023-10-19T04:38:40;24.27;;;14.77;;
34497;SDS011;20744;50.938;7.286;2023-10-19T04:41:09;27.83;;;14.63;;
34497;SDS011;20744;50.938;7.286;2023-10-19T04:43:37;26.50;;;14.40;;
34497;SDS011;20744;50.938;7.286;2023-10-19T04:46:07;21.25;;;13.25;;
34497;SDS011;20744;50.938;7.286;2023-10-19T04:48:36;27.58;;;14.10;;
34497;SDS011;20744;50.938;7.286;2023-10-19T04:51:05;20.45;;;12.90;;
34497;SDS011;20744;50.938;7.286;2023-10-19T04:53:34;22.27;;;13.43;;
34497;SDS011;20744;50.938;7.286;2023-10-19T04:56:02;26.60;;;14.68;;
34497;SDS011;20744;50.938;7.286;2023-10-19T04:58:29;22.23;;;13.05;;
34497;SDS011;20744;50.938;7.286;2023-10-19T05:00:57;18.08;;;11.68;;
34497;SDS011;20744;50.938;7.286;2023-10-19T05:03:26;21.65;;;12.52;;
34497;SDS011;20744;50.938;7.286;2023-10-19T05:05:54;20.17;;;12.32;;
34497;SDS011;20744;50.938;7.286;2023-10-19T05:08:22;20.63;;;11.93;;
34497;SDS011;20744;50.938;7.286;2023-10-19T05:10:53;21.55;;;12.55;;
34497;SDS011;20744;50.938;7.286;2023-10-19T05:13:20;20.50;;;11.27;;
34497;SDS011;20744;50.938;7.286;2023-10-19T05:15:47;19.98;;;12.57;;
34497;SDS011;20744;50.938;7.286;2023-10-19T05:18:15;25.05;;;13.50;;
34497;SDS011;20744;50.938;7.286;2023-10-19T05:20:43;23.38;;;13.55;;
34497;SDS011;20744;50.938;7.286;2023-10-19T05:23:11;29.10;;;13.52;;
34497;SDS011;20744;50.938;7.286;2023-10-19T05:25:38;23.00;;;12.02;;
34497;SDS011;20744;50.938;7.286;2023-10-19T05:28:06;22.83;;;12.93;;
34497;SDS011;20744;50.938;7.286;2023-10-19T05:30:33;18.75;;;11.63;;
34497;SDS011;20744;50.938;7.286;2023-10-19T05:33:01;18.92;;;11.45;;
34497;SDS011;20744;50.938;7.286;2023-10-19T05:35:29;15.57;;;9.88;;
34497;SDS011;20744;50.938;7.286;2023-10-19T05:38:01;16.80;;;10.55;;
34497;SDS011;20744;50.938;7.286;2023-10-19T05:40:28;19.48;;;11.00;;
34497;SDS011;20744;50.938;7.286;2023-10-19T05:42:56;19.63;;;11.27;;
34497;SDS011;20744;50.938;7.286;2023-10-19T05:45:25;23.05;;;11.48;;
34497;SDS011;20744;50.938;7.286;2023-10-19T05:47:54;20.90;;;11.55;;
34497;SDS011;20744;50.938;7.286;2023-10-19T05:50:22;24.63;;;12.63;;
34497;SDS011;20744;50.938;7.286;2023-10-19T05:52:50;22.23;;;12.15;;
34497;SDS011;20744;50.938;7.286;2023-10-19T05:55:19;21.85;;;11.77;;
34497;SDS011;20744;50.938;7.286;2023-10-19T05:57:47;21.50;;;11.07;;
34497;SDS011;20744;50.938;7.286;2023-10-19T06:00:14;17.15;;;10.02;;
34497;SDS011;20744;50.938;7.286;2023-10-19T06:02:44;19.27;;;10.30;;
34497;SDS011;20744;50.938;7.286;2023-10-19T06:05:12;18.70;;;10.88;;
34497;SDS011;20744;50.938;7.286;2023-10-19T06:07:40;27.20;;;11.07;;
34497;SDS011;20744;50.938;7.286;2023-10-19T06:10:08;19.50;;;10.90;;
34497;SDS011;20744;50.938;7.286;2023-10-19T06:12:42;17.75;;;9.93;;
34497;SDS011;20744;50.938;7.286;2023-10-19T06:15:09;22.05;;;10.48;;
34497;SDS011;20744;50.938;7.286;2023-10-19T06:17:38;17.20;;;11.32;;
34497;SDS011;20744;50.938;7.286;2023-10-19T06:20:06;20.23;;;9.70;;
34497;SDS011;20744;50.938;7.286;2023-10-19T06:22:45;18.67;;;10.50;;
34497;SDS011;20744;50.938;7.286;2023-10-19T06:25:15;22.58;;;12.63;;
34497;SDS011;20744;50.938;7.286;2023-10-19T06:27:45;20.50;;;11.02;;
34497;SDS011;20744;50.938;7.286;2023-10-19T06:30:13;19.88;;;11.13;;
34497;SDS011;20744;50.938;7.286;2023-10-19T06:32:47;25.75;;;11.63;;
34497;SDS011;20744;50.938;7.286;2023-10-19T06:35:15;27.92;;;13.38;;
34497;SDS011;20744;50.938;7.286;2023-10-19T06:37:44;25.98;;;12.35;;
34497;SDS011;20744;50.938;7.286;2023-10-19T06:40:12;32.35;;;14.43;;
34497;SDS011;20744;50.938;7.286;2023-10-19T06:42:40;29.40;;;14.10;;
34497;SDS011;20744;50.938;7.286;2023-10-19T06:45:09;21.90;;;12.75;;
34497;SDS011;20744;50.938;7.286;2023-10-19T06:47:39;35.97;;;13.60;;
34497;SDS011;20744;50.938;7.286;2023-10-19T06:50:06;30.52;;;13.32;;
34497;SDS011;20744;50.938;7.286;2023-10-19T06:52:35;25.27;;;13.73;;
34497;SDS011;20744;50.938;7.286;2023-10-19T06:55:03;26.30;;;14.05;;
34497;SDS011;20744;50.938;7.286;2023-10-19T06:57:30;25.20;;;13.43;;
34497;SDS011;20744;50.938;7.286;2023-10-19T06:59:58;31.52;;;13.88;;
34497;SDS011;20744;50.938;7.286;2023-10-19T07:02:37;23.33;;;13.15;;
34497;SDS011;20744;50.938;7.286;2023-10-19T07:05:04;27.33;;;13.30;;
34497;SDS011;20744;50.938;7.286;2023-10-19T07:07:35;36.72;;;14.27;;
34497;SDS011;20744;50.938;7.286;2023-10-19T07:10:04;29.38;;;15.88;;
34497;SDS011;20744;50.938;7.286;2023-10-19T07:12:33;26.27;;;14.15;;
34497;SDS011;20744;50.938;7.286;2023-10-19T07:15:01;28.02;;;14.43;;
34497;SDS011;20744;50.938;7.286;2023-10-19T07:17:32;23.67;;;13.52;;
34497;SDS011;20744;50.938;7.286;2023-10-19T07:20:01;25.08;;;13.23;;
34497;SDS011;20744;50.938;7.286;2023-10-19T07:22:31;27.25;;;13.65;;
34497;SDS011;20744;50.938;7.286;2023-10-19T07:24:58;28.50;;;14.18;;
34497;SDS011;20744;50.938;7.286;2023-10-19T07:27:27;29.65;;;14.55;;
34497;SDS011;20744;50.938;7.286;2023-10-19T07:29:54;24.33;;;13.90;;
34497;SDS011;20744;50.938;7.286;2023-10-19T07:32:22;29.88;;;14.57;;
34497;SDS011;20744;50.938;7.286;2023-10-19T07:34:49;29.33;;;13.48;;
34497;SDS011;20744;50.938;7.286;2023-10-19T07:37:18;29.13;;;13.38;;
34497;SDS011;20744;50.938;7.286;2023-10-19T07:39:46;23.83;;;12.60;;
34497;SDS011;20744;50.938;7.286;2023-10-19T07:42:14;22.75;;;13.00;;
34497;SDS011;20744;50.938;7.286;2023-10-19T07:44:42;25.75;;;13.95;;
34497;SDS011;20744;50.938;7.286;2023-10-19T07:47:10;21.80;;;11.75;;
34497;SDS011;20744;50.938;7.286;2023-10-19T07:49:37;29.05;;;13.07;;
34497;SDS011;20744;50.938;7.286;2023-10-19T07:52:05;21.38;;;12.18;;
34497;SDS011;20744;50.938;7.286;2023-10-19T07:54:34;34.33;;;14.50;;
34497;SDS011;20744;50.938;7.286;2023-10-19T07:57:01;25.80;;;13.40;;
34497;SDS011;20744;50.938;7.286;2023-10-19T07:59:31;25.08;;;13.45;;
34497;SDS011;20744;50.938;7.286;2023-10-19T08:01:58;27.15;;;12.40;;
34497;SDS011;20744;50.938;7.286;2023-10-19T08:04:28;27.80;;;11.98;;
34497;SDS011;20744;50.938;7.286;2023-10-19T08:06:56;19.42;;;10.35;;
34497;SDS011;20744;50.938;7.286;2023-10-19T08:09:23;20.05;;;10.02;;
34497;SDS011;20744;50.938;7.286;2023-10-19T08:11:58;20.92;;;10.52;;
34497;SDS011;20744;50.938;7.286;2023-10-19T08:14:26;18.27;;;9.85;;
34497;SDS011;20744;50.938;7.286;2023-10-19T08:16:55;20.25;;;9.85;;
34497;SDS011;20744;50.938;7.286;2023-10-19T08:19:22;19.98;;;9.45;;
34497;SDS011;20744;50.938;7.286;2023-10-19T08:21:50;16.35;;;8.70;;
34497;SDS011;20744;50.938;7.286;2023-10-19T08:24:18;15.23;;;8.60;;
34497;SDS011;20744;50.938;7.286;2023-10-19T08:26:46;16.92;;;8.00;;
34497;SDS011;20744;50.938;7.286;2023-10-19T08:29:14;15.15;;;7.70;;
34497;SDS011;20744;50.938;7.286;2023-10-19T08:31:43;16.70;;;7.90;;
34497;SDS011;20744;50.938;7.286;2023-10-19T08:34:10;12.43;;;6.97;;
34497;SDS011;20744;50.938;7.286;2023-10-19T08:36:38;13.68;;;5.68;;
34497;SDS011;20744;50.938;7.286;2023-10-19T08:39:05;11.88;;;6.38;;
34497;SDS011;20744;50.938;7.286;2023-10-19T08:41:33;13.68;;;6.20;;
34497;SDS011;20744;50.938;7.286;2023-10-19T08:44:02;14.38;;;5.85;;
34497;SDS011;20744;50.938;7.286;2023-10-19T08:46:37;13.40;;;5.28;;
34497;SDS011;20744;50.938;7.286;2023-10-19T08:49:06;11.90;;;4.82;;
34497;SDS011;20744;50.938;7.286;2023-10-19T08:51:35;9.35;;;4.78;;
34497;SDS011;20744;50.938;7.286;2023-10-19T08:54:03;13.88;;;4.55;;
34497;SDS011;20744;50.938;7.286;2023-10-19T08:56:31;11.15;;;3.97;;
34497;SDS011;20744;50.938;7.286;2023-10-19T08:58:59;13.25;;;4.00;;
34497;SDS011;20744;50.938;7.286;2023-10-19T09:01:26;12.30;;;3.50;;
34497;SDS011;20744;50.938;7.286;2023-10-19T09:03:57;12.32;;;3.78;;
34497;SDS011;20744;50.938;7.286;2023-10-19T09:06:25;12.55;;;3.22;;
34497;SDS011;20744;50.938;7.286;2023-10-19T09:08:54;8.88;;;3.35;;
34497;SDS011;20744;50.938;7.286;2023-10-19T09:11:23;11.45;;;3.22;;
34497;SDS011;20744;50.938;7.286;2023-10-19T09:13:50;11.02;;;3.13;;
34497;SDS011;20744;50.938;7.286;2023-10-19T09:16:18;13.98;;;2.75;;
34497;SDS011;20744;50.938;7.286;2023-10-19T09:18:46;11.35;;;2.90;;
34497;SDS011;20744;50.938;7.286;2023-10-19T09:21:16;12.63;;;3.00;;
34497;SDS011;20744;50.938;7.286;2023-10-19T09:23:50;7.43;;;2.30;;
34497;SDS011;20744;50.938;7.286;2023-10-19T09:26:17;8.90;;;1.90;;
34497;SDS011;20744;50.938;7.286;2023-10-19T09:28:47;10.23;;;2.17;;
34497;SDS011;20744;50.938;7.286;2023-10-19T09:31:14;10.13;;;2.13;;
34497;SDS011;20744;50.938;7.286;2023-10-19T09:33:43;9.18;;;2.38;;
34497;SDS011;20744;50.938;7.286;2023-10-19T09:36:10;10.27;;;2.20;;
34497;SDS011;20744;50.938;7.286;2023-10-19T09:38:42;11.23;;;2.20;;
34497;SDS011;20744;50.938;7.286;2023-10-19T09:41:12;7.50;;;1.83;;
34497;SDS011;20744;50.938;7.286;2023-10-19T09:43:41;6.50;;;1.60;;
34497;SDS011;20744;50.938;7.286;2023-10-19T09:46:09;8.63;;;1.90;;
34497;SDS011;20744;50.938;7.286;2023-10-19T09:48:38;11.32;;;1.95;;
34497;SDS011;20744;50.938;7.286;2023-10-19T09:51:07;8.23;;;1.52;;
34497;SDS011;20744;50.938;7.286;2023-10-19T09:53:34;12.80;;;2.50;;
34497;SDS011;20744;50.938;7.286;2023-10-19T09:56:05;15.40;;;1.90;;
34497;SDS011;20744;50.938;7.286;2023-10-19T09:58:33;4.95;;;1.70;;
34497;SDS011;20744;50.938;7.286;2023-10-19T10:01:02;9.70;;;1.83;;
34497;SDS011;20744;50.938;7.286;2023-10-19T10:03:46;8.00;;;1.80;;
34497;SDS011;20744;50.938;7.286;2023-10-19T10:06:14;8.90;;;1.60;;
34497;SDS011;20744;50.938;7.286;2023-10-19T10:08:42;11.80;;;1.77;;
34497;SDS011;20744;50.938;7.286;2023-10-19T10:11:20;12.50;;;1.73;;
34497;SDS011;20744;50.938;7.286;2023-10-19T10:13:48;12.30;;;1.80;;
34497;SDS011;20744;50.938;7.286;2023-10-19T10:16:17;7.13;;;1.40;;
34497;SDS011;20744;50.938;7.286;2023-10-19T10:18:48;15.35;;;2.42;;
34497;SDS011;20744;50.938;7.286;2023-10-19T10:21:16;13.45;;;1.98;;
34497;SDS011;20744;50.938;7.286;2023-10-19T10:23:46;14.65;;;2.15;;
34497;SDS011;20744;50.938;7.286;2023-10-19T10:26:14;7.68;;;1.70;;
34497;SDS011;20744;50.938;7.286;2023-10-19T10:28:45;16.60;;;2.20;;
34497;SDS011;20744;50.938;7.286;2023-10-19T10:31:13;7.88;;;1.55;;
34497;SDS011;20744;50.938;7.286;2023-10-19T10:33:42;8.88;;;1.55;;
34497;SDS011;20744;50.938;7.286;2023-10-19T10:36:11;7.18;;;1.55;;
34497;SDS011;20744;50.938;7.286;2023-10-19T10:38:39;11.95;;;1.83;;
34497;SDS011;20744;50.938;7.286;2023-10-19T10:41:06;8.93;;;1.92;;
34497;SDS011;20744;50.938;7.286;2023-10-19T10:43:49;8.13;;;1.67;;
34497;SDS011;20744;50.938;7.286;2023-10-19T10:46:18;7.07;;;1.50;;
34497;SDS011;20744;50.938;7.286;2023-10-19T10:48:46;14.10;;;1.77;;
34497;SDS011;20744;50.938;7.286;2023-10-19T10:51:15;10.35;;;2.10;;
34497;SDS011;20744;50.938;7.286;2023-10-19T10:53:42;7.25;;;1.58;;
34497;SDS011;20744;50.938;7.286;2023-10-19T10:56:09;12.27;;;1.90;;
34497;SDS011;20744;50.938;7.286;2023-10-19T10:58:37;6.95;;;1.83;;
34497;SDS011;20744;50.938;7.286;2023-10-19T11:01:07;6.10;;;1.50;;
34497;SDS011;20744;50.938;7.286;2023-10-19T11:03:35;8.07;;;1.60;;
34497;SDS011;20744;50.938;7.286;2023-10-19T11:06:03;11.82;;;1.80;;
34497;SDS011;20744;50.938;7.286;2023-10-19T11:08:33;7.22;;;1.60;;
34497;SDS011;20744;50.938;7.286;2023-10-19T11:11:04;7.55;;;1.63;;
34497;SDS011;20744;50.938;7.286;2023-10-19T11:13:32;10.10;;;2.00;;
34497;SDS011;20744;50.938;7.286;2023-10-19T11:16:00;7.88;;;1.58;;
34497;SDS011;20744;50.938;7.286;2023-10-19T11:18:29;10.18;;;1.67;;
34497;SDS011;20744;50.938;7.286;2023-10-19T11:20:57;5.55;;;1.67;;
34497;SDS011;20744;50.938;7.286;2023-10-19T11:26:19;7.65;;;1.90;;
34497;SDS011;20744;50.938;7.286;2023-10-19T11:28:49;8.38;;;1.73;;
34497;SDS011;20744;50.938;7.286;2023-10-19T11:31:23;8.77;;;1.70;;
34497;SDS011;20744;50.938;7.286;2023-10-19T11:33:53;11.27;;;2.05;;
34497;SDS011;20744;50.938;7.286;2023-10-19T11:36:21;6.60;;;1.63;;
34497;SDS011;20744;50.938;7.286;2023-10-19T11:38:50;8.57;;;1.70;;
34497;SDS011;20744;50.938;7.286;2023-10-19T11:41:18;11.15;;;2.25;;
34497;SDS011;20744;50.938;7.286;2023-10-19T11:43:45;8.93;;;1.73;;
34497;SDS011;20744;50.938;7.286;2023-10-19T11:46:13;7.43;;;1.90;;
34497;SDS011;20744;50.938;7.286;2023-10-19T11:48:41;9.57;;;1.70;;
34497;SDS011;20744;50.938;7.286;2023-10-19T11:51:10;10.15;;;1.73;;
34497;SDS011;20744;50.938;7.286;2023-10-19T11:53:38;13.55;;;2.13;;
34497;SDS011;20744;50.938;7.286;2023-10-19T11:56:06;11.68;;;1.65;;
34497;SDS011;20744;50.938;7.286;2023-10-19T11:58:34;13.68;;;2.00;;
34497;SDS011;20744;50.938;7.286;2023-10-19T12:01:03;8.18;;;1.95;;
34497;SDS011;20744;50.938;7.286;2023-10-19T12:03:33;9.13;;;1.65;;
34497;SDS011;20744;50.938;7.286;2023-10-19T12:06:02;7.78;;;1.60;;
34497;SDS011;20744;50.938;7.286;2023-10-19T12:08:33;8.45;;;1.70;;
34497;SDS011;20744;50.938;7.286;2023-10-19T12:11:01;10.48;;;2.10;;
34497;SDS011;20744;50.938;7.286;2023-10-19T12:13:29;13.48;;;2.22;;
34497;SDS011;20744;50.938;7.286;2023-10-19T12:15:56;13.10;;;2.20;;
34497;SDS011;20744;50.938;7.286;2023-10-19T12:18:23;7.80;;;1.90;;
34497;SDS011;20744;50.938;7.286;2023-10-19T12:20:53;10.63;;;2.33;;
34497;SDS011;20744;50.938;7.286;2023-10-19T12:23:25;8.55;;;1.85;;
34497;SDS011;20744;50.938;7.286;2023-10-19T12:25:53;9.75;;;1.90;;
34497;SDS011;20744;50.938;7.286;2023-10-19T12:28:21;10.93;;;2.33;;
34497;SDS011;20744;50.938;7.286;2023-10-19T12:30:49;14.30;;;2.20;;
34497;SDS011;20744;50.938;7.286;2023-10-19T12:33:17;13.18;;;2.15;;
34497;SDS011;20744;50.938;7.286;2023-10-19T12:35:44;9.85;;;1.80;;
34497;SDS011;20744;50.938;7.286;2023-10-19T12:38:14;11.65;;;2.33;;
34497;SDS011;20744;50.938;7.286;2023-10-19T12:40:43;13.23;;;2.00;;
34497;SDS011;20744;50.938;7.286;2023-10-19T12:43:13;11.35;;;1.65;;
34497;SDS011;20744;50.938;7.286;2023-10-19T12:45:40;13.23;;;1.77;;
34497;SDS011;20744;50.938;7.286;2023-10-19T12:48:09;9.15;;;2.20;;
34497;SDS011;20744;50.938;7.286;2023-10-19T12:50:37;8.50;;;2.00;;
34497;SDS011;20744;50.938;7.286;2023-10-19T12:53:06;7.57;;;2.00;;
34497;SDS011;20744;50.938;7.286;2023-10-19T12:55:33;14.15;;;2.08;;
34497;SDS011;20744;50.938;7.286;2023-10-19T12:58:03;9.15;;;2.00;;
34497;SDS011;20744;50.938;7.286;2023-10-19T13:00:35;10.60;;;1.95;;
34497;SDS011;20744;50.938;7.286;2023-10-19T13:03:08;13.38;;;2.33;;
34497;SDS011;20744;50.938;7.286;2023-10-19T13:05:38;10.43;;;2.20;;
34497;SDS011;20744;50.938;7.286;2023-10-19T13:08:06;14.55;;;2.33;;
34497;SDS011;20744;50.938;7.286;2023-10-19T13:10:34;10.80;;;2.00;;
34497;SDS011;20744;50.938;7.286;2023-10-19T13:13:03;11.50;;;2.40;;
34497;SDS011;20744;50.938;7.286;2023-10-19T13:15:31;8.45;;;2.50;;
34497;SDS011;20744;50.938;7.286;2023-10-19T13:18:01;9.27;;;2.20;;
34497;SDS011;20744;50.938;7.286;2023-10-19T13:20:28;11.75;;;2.35;;
34497;SDS011;20744;50.938;7.286;2023-10-19T13:22:59;10.15;;;2.05;;
34497;SDS011;20744;50.938;7.286;2023-10-19T13:25:28;7.90;;;1.73;;
34497;SDS011;20744;50.938;7.286;2023-10-19T13:28:07;8.13;;;2.33;;
34497;SDS011;20744;50.938;7.286;2023-10-19T13:30:38;13.95;;;2.17;;
34497;SDS011;20744;50.938;7.286;2023-10-19T13:33:07;10.70;;;2.10;;
34497;SDS011;20744;50.938;7.286;2023-10-19T13:35:35;17.45;;;2.42;;
34497;SDS011;20744;50.938;7.286;2023-10-19T13:38:03;11.70;;;2.08;;
34497;SDS011;20744;50.938;7.286;2023-10-19T13:40:31;10.40;;;2.20;;
34497;SDS011;20744;50.938;7.286;2023-10-19T13:42:58;10.60;;;1.90;;
34497;SDS011;20744;50.938;7.286;2023-10-19T13:45:26;9.18;;;2.08;;
34497;SDS011;20744;50.938;7.286;2023-10-19T13:47:53;9.32;;;2.63;;
34497;SDS011;20744;50.938;7.286;2023-10-19T13:50:25;9.65;;;2.17;;
34497;SDS011;20744;50.938;7.286;2023-10-19T13:52:54;10.27;;;2.25;;
34497;SDS011;20744;50.938;7.286;2023-10-19T13:55:22;10.10;;;2.42;;
34497;SDS011;20744;50.938;7.286;2023-10-19T13:57:50;13.27;;;1.98;;
34497;SDS011;20744;50.938;7.286;2023-10-19T14:00:17;6.32;;;1.88;;
34497;SDS011;20744;50.938;7.286;2023-10-19T14:02:50;9.05;;;1.90;;
34497;SDS011;20744;50.938;7.286;2023-10-19T14:05:17;11.27;;;2.20;;
34497;SDS011;20744;50.938;7.286;2023-10-19T14:07:46;10.23;;;2.45;;
34497;SDS011;20744;50.938;7.286;2023-10-19T14:10:14;14.52;;;2.35;;
34497;SDS011;20744;50.938;7.286;2023-10-19T14:12:44;11.23;;;2.42;;
34497;SDS011;20744;50.938;7.286;2023-10-19T14:15:13;10.68;;;2.83;;
34497;SDS011;20744;50.938;7.286;2023-10-19T14:17:41;13.02;;;2.53;;
34497;SDS011;20744;50.938;7.286;2023-10-19T14:20:08;9.82;;;2.35;;
34497;SDS011;20744;50.938;7.286;2023-10-19T14:22:40;11.85;;;2.70;;
34497;SDS011;20744;50.938;7.286;2023-10-19T14:25:10;10.35;;;2.83;;
34497;SDS011;20744;50.938;7.286;2023-10-19T14:27:41;11.77;;;2.67;;
34497;SDS011;20744;50.938;7.286;2023-10-19T14:30:09;13.55;;;3.25;;
34497;SDS011;20744;50.938;7.286;2023-10-19T14:32:38;15.48;;;3.03;;
34497;SDS011;20744;50.938;7.286;2023-10-19T14:35:05;10.25;;;2.90;;
34497;SDS011;20744;50.938;7.286;2023-10-19T14:37:36;11.02;;;2.75;;
34497;SDS011;20744;50.938;7.286;2023-10-19T14:40:05;9.27;;;3.25;;
34497;SDS011;20744;50.938;7.286;2023-10-19T14:42:36;9.93;;;3.00;;
34497;SDS011;20744;50.938;7.286;2023-10-19T14:45:04;9.45;;;3.17;;
34497;SDS011;20744;50.938;7.286;2023-10-19T14:47:34;12.73;;;3.10;;